Time;durP1;ratioP1;P1;durP2;ratioP2;P2;SDS_P1;SDS_P2;PMS_P1;PMS_P2;Temp;Humidity;BMP_temperature;BMP_pressure;BME280_temperature;BME280_humidity;BME280_pressure;Samples;Min_cycle;Max_cycle;Signal;HPM_P1;HPM_P2
2022/06/16 00:01:44;;;;;;;4.55;2.22;;;;;;;22.92;42.69;101958.03;5107954;28;20088;-64
2022/06/16 00:04:09;;;;;;;1.77;1.38;;;;;;;22.95;42.77;101943.28;5090696;28;20035;-64
2022/06/16 00:06:34;;;;;;;2.33;1.17;;;;;;;22.92;43.05;101933.63;5108819;28;20024;-64
2022/06/16 00:09:00;;;;;;;2.67;1.40;;;;;;;22.94;42.87;101949.75;5108238;28;20024;-64
2022/06/16 00:11:25;;;;;;;3.35;1.65;;;;;;;22.93;43.03;101943.44;5123579;28;20026;-64
2022/06/16 00:13:51;;;;;;;3.15;1.58;;;;;;;22.85;43.11;101929.88;5128328;28;20027;-64
2022/06/16 00:16:18;;;;;;;2.40;1.60;;;;;;;22.93;42.90;101954.28;5129078;28;20039;-65
2022/06/16 00:18:43;;;;;;;1.85;1.30;;;;;;;22.90;42.98;101954.66;5126314;28;20031;-65
2022/06/16 00:21:09;;;;;;;1.33;1.08;;;;;;;22.93;42.91;101961.59;5108347;28;20434;-64
2022/06/16 00:23:35;;;;;;;2.25;1.15;;;;;;;22.93;43.08;101958.88;5118892;28;20031;-64
2022/06/16 00:26:00;;;;;;;2.28;1.50;;;;;;;22.92;42.45;101949.91;5128789;28;20045;-64
2022/06/16 00:28:25;;;;;;;1.45;1.20;;;;;;;22.92;42.68;101955.31;5128701;28;20035;-64
2022/06/16 00:30:50;;;;;;;2.58;1.63;;;;;;;22.91;42.98;101960.91;5128767;28;20023;-64
2022/06/16 00:33:16;;;;;;;2.17;1.80;;;;;;;22.90;43.00;101973.63;5128649;28;20031;-62
2022/06/16 00:35:41;;;;;;;1.67;1.50;;;;;;;22.92;42.98;101970.75;5128497;28;20069;-65
2022/06/16 00:38:06;;;;;;;2.40;1.40;;;;;;;22.90;43.15;101965.50;5126652;28;20030;-64
2022/06/16 00:40:32;;;;;;;2.33;1.27;;;;;;;22.90;43.06;101962.78;5128568;28;20034;-65
2022/06/16 00:42:57;;;;;;;1.90;1.40;;;;;;;22.90;42.96;101962.78;5127939;28;20040;-64
2022/06/16 00:45:41;;;;;;;2.25;1.30;;;;;;;22.90;42.86;101962.78;5128256;28;20027;-64
2022/06/16 00:48:07;;;;;;;1.77;1.50;;;;;;;22.87;42.26;101959.53;5128499;28;20032;-63
2022/06/16 00:50:32;;;;;;;2.25;1.45;;;;;;;22.88;41.50;101956.63;5128276;28;20048;-64
2022/06/16 00:52:58;;;;;;;1.92;1.42;;;;;;;22.88;41.10;101956.63;5121326;28;20019;-62
2022/06/16 00:55:23;;;;;;;4.10;1.67;;;;;;;22.89;42.35;101957.47;5107395;28;20024;-63
2022/06/16 00:57:49;;;;;;;1.95;1.58;;;;;;;22.80;42.21;101953.94;5089819;28;20020;-62
2022/06/16 01:00:43;;;;;;;2.05;1.27;;;;;;;22.88;42.34;101962.06;5089553;28;20035;-63
2022/06/16 01:03:08;;;;;;;1.85;1.38;;;;;;;22.87;42.23;101963.09;5112748;28;20020;-63
2022/06/16 01:05:34;;;;;;;1.83;1.27;;;;;;;22.87;41.42;101962.25;5125176;28;20371;-63
2022/06/16 01:07:59;;;;;;;1.38;1.13;;;;;;;22.87;41.54;101967.66;5107800;28;20042;-63
2022/06/16 01:10:32;;;;;;;2.28;1.40;;;;;;;22.87;41.16;101967.66;5112074;28;20140;-62
2022/06/16 01:16:05;;;;;;;2.50;1.30;;;;;;;22.87;41.28;101978.50;5107134;28;20043;-63
2022/06/16 01:18:45;;;;;;;2.65;1.30;;;;;;;22.85;41.35;101972.41;5090118;28;20864;-63
2022/06/16 01:21:28;;;;;;;2.25;1.55;;;;;;;22.85;41.19;101983.25;5127435;28;20063;-63
2022/06/16 01:24:23;;;;;;;2.08;1.50;;;;;;;22.84;40.58;101978.84;5127207;28;20057;-63
2022/06/16 01:27:16;;;;;;;2.38;1.30;;;;;;;22.83;40.54;101983.41;5044357;28;20040;-62
2022/06/16 01:30:09;;;;;;;3.20;1.50;;;;;;;22.83;40.51;101980.72;5044346;28;20030;-64
2022/06/16 01:33:00;;;;;;;1.55;1.23;;;;;;;22.82;40.44;101984.44;5044468;28;20041;-63
2022/06/16 01:35:36;;;;;;;2.03;1.50;;;;;;;22.81;40.22;101982.75;5044085;28;20030;-62
2022/06/16 01:38:06;;;;;;;2.88;1.52;;;;;;;22.81;40.16;101984.59;5043511;28;20041;-63
2022/06/16 01:40:43;;;;;;;2.63;1.38;;;;;;;22.78;40.49;101974.94;5042522;28;20029;-63
2022/06/16 01:43:15;;;;;;;1.85;1.52;;;;;;;22.80;40.23;101970.19;5043647;28;20049;-63
2022/06/16 01:45:46;;;;;;;3.90;1.45;;;;;;;22.80;40.46;101969.34;5027687;28;20036;-63
2022/06/16 01:48:12;;;;;;;1.90;1.35;;;;;;;22.79;40.27;101978.50;5027706;28;20453;-63
2022/06/16 01:51:03;;;;;;;3.35;1.40;;;;;;;22.79;40.43;101970.38;5027501;28;20041;-63
2022/06/16 01:53:40;;;;;;;2.50;1.50;;;;;;;22.78;39.93;101980.38;5027418;28;20097;-63
2022/06/16 01:56:22;;;;;;;2.30;1.50;;;;;;;22.77;40.23;101978.69;5010792;28;20470;-62
2022/06/16 01:58:52;;;;;;;2.53;1.40;;;;;;;22.76;39.93;101978.84;5013960;28;20033;-63
2022/06/16 02:01:18;;;;;;;2.33;1.50;;;;;;;22.75;40.08;101980.69;5023963;28;20034;-63
2022/06/16 02:03:49;;;;;;;2.17;1.60;;;;;;;22.74;39.83;101987.16;5058552;28;20069;-63
2022/06/16 02:06:20;;;;;;;2.97;1.40;;;;;;;22.74;40.04;101989.00;5106434;28;20016;-63
2022/06/16 02:08:48;;;;;;;2.63;1.52;;;;;;;22.73;39.90;101981.91;5105977;28;20024;-62
2022/06/16 02:11:34;;;;;;;2.15;1.40;;;;;;;22.71;39.94;101988.31;5098487;28;20174;-63
2022/06/16 02:14:27;;;;;;;2.25;1.40;;;;;;;22.71;40.04;101996.44;5087506;28;20051;-63
2022/06/16 02:16:53;;;;;;;3.63;1.50;;;;;;;22.69;40.01;101995.78;5106126;28;20044;-63
2022/06/16 02:19:20;;;;;;;1.95;1.33;;;;;;;22.68;39.87;101993.22;5106109;28;20031;-63
2022/06/16 02:21:49;;;;;;;1.70;1.50;;;;;;;22.67;40.02;101989.66;5104970;28;20028;-63
2022/06/16 02:24:17;;;;;;;3.13;1.25;;;;;;;22.67;40.14;101991.53;5087312;28;20031;-63
2022/06/16 02:26:43;;;;;;;2.17;1.30;;;;;;;22.64;39.78;101986.44;5105933;28;20028;-63
2022/06/16 02:29:26;;;;;;;2.00;1.45;;;;;;;22.66;39.86;101987.97;5105933;28;20028;-62
2022/06/16 02:32:13;;;;;;;2.67;1.73;;;;;;;22.65;39.75;101983.59;5105961;28;20079;-63
2022/06/16 02:34:47;;;;;;;2.75;1.48;;;;;;;22.64;39.91;101989.16;5105691;28;20497;-63
2022/06/16 02:37:44;;;;;;;2.08;1.48;;;;;;;22.64;39.72;101991.84;5105910;28;20027;-63
2022/06/16 02:40:21;;;;;;;1.40;1.17;;;;;;;22.61;39.79;101995.78;5087901;28;20027;-63
2022/06/16 02:42:56;;;;;;;2.20;1.25;;;;;;;22.61;39.69;101989.50;5087308;28;20093;-62
2022/06/16 02:45:43;;;;;;;3.47;1.40;;;;;;;22.59;39.83;101988.81;5105591;28;20020;-63
2022/06/16 02:48:29;;;;;;;2.72;1.65;;;;;;;22.60;39.78;102001.34;5087727;28;20028;-63
2022/06/16 02:50:57;;;;;;;2.28;1.48;;;;;;;22.58;39.81;102009.66;5087485;28;20456;-63
2022/06/16 02:56:10;;;;;;;1.60;1.48;;;;;;;22.57;39.79;102007.13;5105661;28;20032;-63
2022/06/16 02:58:37;;;;;;;2.97;1.58;;;;;;;22.54;39.83;102013.72;5105685;28;20380;-63
2022/06/16 03:01:05;;;;;;;1.85;1.42;;;;;;;22.53;39.56;102011.16;5087396;28;20016;-63
2022/06/16 03:03:33;;;;;;;2.50;1.70;;;;;;;22.54;39.70;102021.00;5105443;28;20019;-64
2022/06/16 03:05:59;;;;;;;2.65;1.40;;;;;;;22.52;39.55;102018.47;5105461;28;20430;-63
2022/06/16 03:08:27;;;;;;;2.75;1.50;;;;;;;22.53;39.72;102017.44;5105082;28;20039;-62
2022/06/16 03:10:53;;;;;;;3.05;1.60;;;;;;;22.52;39.54;102014.91;5116154;28;20023;-63
2022/06/16 03:13:24;;;;;;;4.10;1.60;;;;;;;22.52;39.77;102021.16;5107176;28;20027;-63
2022/06/16 03:15:51;;;;;;;2.75;1.77;;;;;;;22.51;39.78;102027.59;5125900;28;20027;-63
2022/06/16 03:18:17;;;;;;;1.77;1.42;;;;;;;22.49;39.45;102026.91;5125613;28;20051;-63
2022/06/16 03:20:42;;;;;;;1.70;1.30;;;;;;;22.50;39.83;102039.44;5125620;28;20019;-63
2022/06/16 03:23:08;;;;;;;3.22;1.50;;;;;;;22.50;39.41;102038.59;5118059;28;20027;-63
2022/06/16 03:25:34;;;;;;;2.92;2.05;;;;;;;22.49;39.61;102039.63;5104859;28;20053;-63
2022/06/16 03:27:59;;;;;;;3.83;1.60;;;;;;;22.43;39.47;102033.84;5087353;28;20427;-63
2022/06/16 03:30:25;;;;;;;1.65;1.42;;;;;;;22.46;39.60;102044.34;5104992;28;20031;-61
2022/06/16 03:32:50;;;;;;;2.13;1.52;;;;;;;22.46;39.46;102051.63;5105277;28;20093;-63
2022/06/16 03:35:16;;;;;;;2.70;1.63;;;;;;;22.45;39.74;102063.47;5105608;28;20107;-63
2022/06/16 03:37:41;;;;;;;2.58;1.80;;;;;;;22.44;39.51;102068.06;5108891;28;20035;-62
2022/06/16 03:40:08;;;;;;;2.10;1.63;;;;;;;22.44;39.40;102067.22;5109573;28;20012;-62
2022/06/16 03:42:33;;;;;;;2.33;1.50;;;;;;;22.43;39.42;102060.09;5108614;28;20044;-63
2022/06/16 03:44:58;;;;;;;4.50;1.67;;;;;;;22.42;39.76;102061.94;5109157;28;20058;-63
2022/06/16 03:47:24;;;;;;;2.88;1.67;;;;;;;22.42;39.42;102055.69;5109302;28;20054;-63
2022/06/16 03:49:49;;;;;;;2.13;1.45;;;;;;;22.41;39.59;102054.00;5108989;28;20016;-63
2022/06/16 03:52:15;;;;;;;2.40;1.73;;;;;;;22.41;39.55;102054.81;5108842;28;20032;-63
2022/06/16 03:54:40;;;;;;;3.05;1.75;;;;;;;22.39;39.38;102053.31;5108613;28;20024;-63
2022/06/16 03:57:05;;;;;;;2.88;1.48;;;;;;;22.40;39.58;102063.13;5108902;28;20035;-62
2022/06/16 03:59:30;;;;;;;3.22;1.70;;;;;;;22.39;39.43;102065.00;5108745;28;20020;-63
2022/06/16 04:01:56;;;;;;;2.45;1.50;;;;;;;22.38;39.56;102071.41;5090968;28;20031;-63
2022/06/16 04:04:21;;;;;;;1.73;1.50;;;;;;;22.38;39.56;102075.97;5108650;28;20030;-62
2022/06/16 04:06:46;;;;;;;2.28;1.40;;;;;;;22.38;39.59;102079.53;5108909;28;20040;-63
2022/06/16 04:09:11;;;;;;;2.03;1.65;;;;;;;22.33;39.53;102068.34;5108302;28;20032;-63
2022/06/16 04:11:37;;;;;;;2.53;1.63;;;;;;;22.35;39.34;102081.75;5125379;28;20023;-63
2022/06/16 04:14:12;;;;;;;2.25;1.55;;;;;;;22.37;39.58;102079.72;5128695;28;20028;-63
2022/06/16 04:16:48;;;;;;;2.60;1.60;;;;;;;22.36;39.60;102078.03;5129138;28;20030;-63
2022/06/16 04:19:15;;;;;;;1.67;1.50;;;;;;;22.34;39.43;102086.28;5128898;28;20027;-63
2022/06/16 04:21:42;;;;;;;3.35;1.58;;;;;;;22.32;39.84;102084.78;5128939;28;20031;-63
2022/06/16 04:24:08;;;;;;;2.25;1.50;;;;;;;22.34;39.74;102088.16;5108772;28;20073;-63
2022/06/16 04:26:33;;;;;;;2.95;1.50;;;;;;;22.35;39.58;102087.16;5128851;28;20016;-63
2022/06/16 04:28:59;;;;;;;2.33;1.65;;;;;;;22.25;39.96;102081.84;5128861;28;20028;-62
2022/06/16 04:31:24;;;;;;;3.00;1.80;;;;;;;22.33;39.69;102098.16;5128510;28;20050;-63
2022/06/16 04:33:50;;;;;;;2.55;1.33;;;;;;;22.33;39.69;102105.44;5128638;28;20180;-62
2022/06/16 04:36:16;;;;;;;3.08;1.75;;;;;;;22.34;40.04;102099.00;5128489;28;20037;-63
2022/06/16 04:38:41;;;;;;;2.20;1.70;;;;;;;22.33;40.08;102086.47;5115483;28;20027;-63
2022/06/16 04:41:07;;;;;;;1.55;1.38;;;;;;;22.33;39.78;102089.19;5108307;28;20039;-62
2022/06/16 04:43:32;;;;;;;1.90;1.70;;;;;;;22.32;39.90;102088.34;5107449;28;20047;-62
2022/06/16 04:45:58;;;;;;;2.65;1.73;;;;;;;22.27;39.93;102077.13;5107820;28;20023;-62
2022/06/16 04:48:24;;;;;;;1.60;1.50;;;;;;;22.33;39.97;102081.88;5108002;28;20034;-62
2022/06/16 04:50:50;;;;;;;2.22;1.25;;;;;;;22.33;39.82;102081.06;5108078;28;20032;-62
2022/06/16 04:53:15;;;;;;;2.38;1.80;;;;;;;22.29;39.79;102082.38;5107432;28;20035;-62
2022/06/16 04:55:40;;;;;;;2.47;1.75;;;;;;;22.32;39.95;102090.19;5107477;28;20075;-63
2022/06/16 04:58:06;;;;;;;3.45;1.98;;;;;;;22.31;39.96;102105.59;5107884;28;20045;-62
2022/06/16 05:00:31;;;;;;;3.92;1.95;;;;;;;22.29;40.05;102107.63;5107658;28;20032;-62
2022/06/16 05:02:57;;;;;;;3.15;1.85;;;;;;;22.29;40.39;102104.91;5107444;28;20023;-61
2022/06/16 05:05:22;;;;;;;2.47;1.63;;;;;;;22.30;40.13;102120.19;5088690;28;20016;-62
2022/06/16 05:07:48;;;;;;;2.63;1.65;;;;;;;22.29;40.13;102120.31;5105371;28;20024;-62
2022/06/16 05:10:13;;;;;;;3.00;1.90;;;;;;;22.29;40.04;102123.88;5112679;28;20055;-62
2022/06/16 05:12:39;;;;;;;2.65;1.70;;;;;;;22.28;40.16;102122.19;5109274;28;20048;-62
2022/06/16 05:15:05;;;;;;;2.30;1.60;;;;;;;22.21;40.08;102105.72;5127757;28;20057;-62
2022/06/16 05:17:30;;;;;;;2.05;1.73;;;;;;;22.28;40.19;102133.00;5127578;28;20024;-63
2022/06/16 05:19:56;;;;;;;3.22;1.80;;;;;;;22.28;40.32;102132.16;5127614;28;20080;-62
2022/06/16 05:22:21;;;;;;;2.55;1.70;;;;;;;22.28;39.96;102133.00;5123897;28;20028;-64
2022/06/16 05:24:46;;;;;;;3.25;1.60;;;;;;;22.28;40.39;102146.56;5107163;28;20061;-64
2022/06/16 05:27:12;;;;;;;2.40;1.98;;;;;;;22.29;40.02;102142.00;5107189;28;20501;-64
2022/06/16 05:29:37;;;;;;;3.63;1.55;;;;;;;22.29;40.01;102142.00;5088887;28;20096;-64
2022/06/16 05:32:03;;;;;;;2.63;1.80;;;;;;;22.28;40.04;102143.84;5106998;28;20083;-64
2022/06/16 05:34:29;;;;;;;3.00;1.95;;;;;;;22.27;40.15;102146.72;5106901;28;20471;-64
2022/06/16 05:36:54;;;;;;;3.15;1.95;;;;;;;22.28;39.98;102141.16;5106979;28;20035;-64
2022/06/16 05:39:19;;;;;;;2.55;1.95;;;;;;;22.28;40.46;102148.44;5089375;28;20027;-64
2022/06/16 05:41:45;;;;;;;2.85;1.90;;;;;;;22.27;40.20;102144.03;5106659;28;20038;-64
2022/06/16 05:44:10;;;;;;;1.75;1.30;;;;;;;22.28;40.34;102157.41;5106769;28;20070;-64
2022/06/16 05:46:36;;;;;;;2.78;1.85;;;;;;;22.21;40.14;102149.06;5106759;28;20024;-64
2022/06/16 05:49:03;;;;;;;2.72;1.50;;;;;;;22.27;40.40;102153.00;5106863;28;20028;-64
2022/06/16 05:51:29;;;;;;;2.63;1.50;;;;;;;22.28;40.21;102164.69;5106600;28;20043;-64
2022/06/16 05:53:54;;;;;;;2.72;1.60;;;;;;;22.27;40.40;102173.84;5124643;28;20031;-64
2022/06/16 05:56:19;;;;;;;2.38;1.50;;;;;;;22.27;40.50;102171.13;5126725;28;20027;-64
2022/06/16 05:58:45;;;;;;;3.05;2.13;;;;;;;22.28;40.53;102183.66;5126386;28;20031;-64
2022/06/16 06:01:11;;;;;;;2.72;1.90;;;;;;;22.28;40.44;102181.78;5126870;28;20034;-64
2022/06/16 06:03:40;;;;;;;3.35;1.48;;;;;;;22.28;40.30;102183.66;5126804;28;20049;-64
2022/06/16 06:06:06;;;;;;;1.88;1.35;;;;;;;22.27;40.36;102173.84;5126881;28;20015;-63
2022/06/16 06:16:47;;;;;;;2.83;1.30;;;;;;;22.27;40.34;102188.22;5106144;28;20057;-63
2022/06/16 06:19:23;;;;;;;2.80;1.48;;;;;;;22.28;40.35;102189.06;5106240;28;20027;-64
2022/06/16 06:22:03;;;;;;;2.38;1.55;;;;;;;22.25;40.46;102178.53;5106584;28;20031;-64
2022/06/16 06:24:34;;;;;;;2.00;1.33;;;;;;;22.28;40.33;102191.78;5124292;28;20087;-64
2022/06/16 06:27:03;;;;;;;1.50;1.30;;;;;;;22.27;40.54;102193.63;5126275;28;20058;-64
2022/06/16 06:29:29;;;;;;;1.83;1.30;;;;;;;22.26;40.54;102185.66;5108077;28;20020;-64
2022/06/16 06:31:54;;;;;;;5.38;1.30;;;;;;;22.27;40.40;102198.22;5126261;28;20035;-64
2022/06/16 06:34:19;;;;;;;2.47;1.50;;;;;;;22.27;40.47;102195.50;5126067;28;20019;-64
2022/06/16 06:36:44;;;;;;;2.20;1.20;;;;;;;22.25;40.16;102197.50;5126354;28;20031;-64
2022/06/16 06:39:11;;;;;;;2.25;1.52;;;;;;;22.25;40.31;102195.63;5125834;28;20506;-64
2022/06/16 06:41:36;;;;;;;1.85;1.08;;;;;;;22.24;40.24;102193.94;5125859;28;20020;-64
2022/06/16 06:44:02;;;;;;;2.10;1.23;;;;;;;22.25;40.22;102198.34;5126007;28;20026;-64
2022/06/16 06:46:27;;;;;;;3.13;1.70;;;;;;;22.25;40.05;102194.78;5125785;28;20024;-64
2022/06/16 06:48:52;;;;;;;4.03;1.50;;;;;;;22.23;40.06;102197.69;5126018;28;20107;-64
2022/06/16 06:51:17;;;;;;;2.72;1.48;;;;;;;22.25;40.12;102198.34;5125989;28;20028;-64
2022/06/16 06:53:43;;;;;;;2.58;1.20;;;;;;;22.26;40.11;102196.50;5088204;28;20316;-65
2022/06/16 06:56:09;;;;;;;2.00;1.00;;;;;;;22.26;40.04;102199.19;5114713;28;20053;-64
2022/06/16 06:58:34;;;;;;;2.10;1.10;;;;;;;22.27;40.11;102192.78;5125906;28;20061;-64
2022/06/16 07:01:01;;;;;;;2.28;1.10;;;;;;;22.27;40.10;102200.91;5125809;28;20027;-64
2022/06/16 07:03:27;;;;;;;1.85;1.30;;;;;;;22.27;40.03;102199.06;5126004;28;20042;-63
2022/06/16 07:05:52;;;;;;;1.75;0.90;;;;;;;22.27;39.67;102201.78;5125752;28;20020;-64
2022/06/16 07:08:18;;;;;;;2.10;1.02;;;;;;;22.28;39.64;102194.50;5125459;28;20030;-65
2022/06/16 07:10:43;;;;;;;1.88;1.13;;;;;;;22.28;39.84;102191.78;5115503;28;20455;-64
2022/06/16 07:13:08;;;;;;;1.42;0.98;;;;;;;22.28;39.28;102198.03;5104898;28;20024;-64
2022/06/16 07:15:34;;;;;;;2.55;1.20;;;;;;;22.29;39.63;102204.31;5105341;28;20028;-65
2022/06/16 07:18:00;;;;;;;1.30;1.00;;;;;;;22.29;39.25;102207.00;5105407;28;20031;-64
2022/06/16 07:20:25;;;;;;;1.40;0.85;;;;;;;22.23;39.21;102194.97;5105025;28;20276;-63
2022/06/16 07:22:51;;;;;;;2.20;1.15;;;;;;;22.29;39.33;102197.03;5118607;28;20028;-64
2022/06/16 07:25:16;;;;;;;2.03;1.00;;;;;;;22.31;39.37;102205.84;5130094;28;20034;-64
2022/06/16 07:27:42;;;;;;;1.02;0.77;;;;;;;22.32;39.26;102209.41;5119140;28;20035;-64
2022/06/16 07:30:13;;;;;;;1.42;1.10;;;;;;;22.32;39.39;102204.00;5136629;28;20007;-64
2022/06/16 07:32:40;;;;;;;1.45;0.95;;;;;;;22.32;38.94;102204.84;5133914;28;20043;-64
2022/06/16 07:35:06;;;;;;;1.95;0.88;;;;;;;22.33;39.07;102211.09;5125854;28;20088;-63
2022/06/16 07:37:32;;;;;;;2.05;1.27;;;;;;;22.34;38.83;102215.50;5125493;28;20075;-64
2022/06/16 07:39:57;;;;;;;1.98;1.00;;;;;;;22.34;38.94;102210.09;5125570;28;20031;-64
2022/06/16 07:42:22;;;;;;;2.35;1.00;;;;;;;22.34;38.95;102210.94;5124975;28;20106;-64
2022/06/16 07:44:47;;;;;;;1.90;0.63;;;;;;;22.36;39.01;102217.06;5125415;28;20031;-64
2022/06/16 07:47:13;;;;;;;2.03;1.17;;;;;;;22.36;39.11;102214.34;5125912;28;20077;-65
2022/06/16 07:49:38;;;;;;;1.35;0.70;;;;;;;22.37;39.35;102218.75;5125524;28;20031;-65
2022/06/16 07:52:04;;;;;;;1.65;1.02;;;;;;;22.40;38.76;102218.44;5118009;28;20024;-64
2022/06/16 07:54:29;;;;;;;1.02;0.70;;;;;;;22.40;38.97;102218.44;5104291;28;20730;-64
2022/06/16 07:56:55;;;;;;;3.10;1.10;;;;;;;22.41;38.79;102225.56;5104993;28;20418;-64
2022/06/16 07:59:20;;;;;;;2.60;1.10;;;;;;;22.42;38.75;102220.97;5104902;28;20129;-64
2022/06/16 08:01:46;;;;;;;2.20;0.85;;;;;;;22.44;38.95;102225.25;5105061;28;20027;-64
2022/06/16 08:04:12;;;;;;;1.75;1.10;;;;;;;22.46;38.52;102234.03;5104904;28;20111;-64
2022/06/16 08:06:38;;;;;;;2.33;0.98;;;;;;;22.48;38.70;102228.50;5104688;28;20051;-64
2022/06/16 08:09:05;;;;;;;1.65;0.80;;;;;;;22.48;38.62;102224.94;5104676;28;20024;-64
2022/06/16 08:14:14;;;;;;;0.95;0.75;;;;;;;22.50;38.77;102220.19;5124924;28;20039;-64
2022/06/16 08:16:40;;;;;;;2.47;1.38;;;;;;;22.54;39.04;102233.25;5125221;28;20027;-65
2022/06/16 08:19:05;;;;;;;1.63;0.60;;;;;;;22.56;38.65;102230.41;5106940;28;20019;-63
2022/06/16 08:21:31;;;;;;;1.25;0.70;;;;;;;22.59;38.73;102230.06;5121217;28;20039;-64
2022/06/16 08:23:56;;;;;;;2.30;0.85;;;;;;;22.57;38.25;102226.69;5107893;28;20039;-64
2022/06/16 08:26:22;;;;;;;2.40;0.90;;;;;;;22.56;38.40;102225.81;5089879;28;20034;-65
2022/06/16 08:28:48;;;;;;;2.25;0.90;;;;;;;22.60;38.92;102224.50;5108364;28;20031;-64
2022/06/16 08:31:14;;;;;;;1.30;0.90;;;;;;;22.62;39.79;102232.47;5108313;28;20276;-64
2022/06/16 08:33:40;;;;;;;1.83;0.80;;;;;;;22.61;40.10;102230.75;5108398;28;20024;-65
2022/06/16 08:36:05;;;;;;;1.92;0.70;;;;;;;22.65;39.80;102243.00;5108092;28;20035;-63
2022/06/16 08:38:31;;;;;;;1.77;0.88;;;;;;;22.65;39.83;102235.69;5107737;28;20028;-64
2022/06/16 08:41:15;;;;;;;1.38;0.60;;;;;;;22.67;40.38;102230.09;5107977;28;20023;-64
2022/06/16 08:44:08;;;;;;;1.42;0.73;;;;;;;22.68;41.10;102234.50;5091645;28;20048;-64
2022/06/16 08:46:41;;;;;;;1.63;0.60;;;;;;;22.68;41.06;102224.53;5053237;28;20100;-62
2022/06/16 08:49:21;;;;;;;2.47;1.00;;;;;;;22.67;41.37;102230.94;5089546;28;20020;-64
2022/06/16 08:52:07;;;;;;;1.52;0.60;;;;;;;22.68;41.58;102227.25;5107750;28;20020;-64
2022/06/16 08:54:52;;;;;;;3.35;0.80;;;;;;;22.71;41.16;102240.47;5107088;28;20020;-65
2022/06/16 08:57:48;;;;;;;1.50;0.68;;;;;;;22.70;40.59;102237.91;5107499;28;20328;-64
2022/06/16 09:00:30;;;;;;;1.80;0.95;;;;;;;22.73;40.67;102250.31;5106372;28;20043;-64
2022/06/16 09:03:09;;;;;;;2.75;0.98;;;;;;;22.73;39.71;102248.44;5107598;28;20024;-64
2022/06/16 09:05:56;;;;;;;1.98;0.90;;;;;;;22.71;38.91;102248.59;5107356;28;20028;-64
2022/06/16 09:08:29;;;;;;;2.33;1.13;;;;;;;22.69;39.52;102247.06;5089183;28;20028;-64
2022/06/16 09:11:22;;;;;;;2.55;1.10;;;;;;;22.71;39.47;102250.47;5118174;28;20082;-64
2022/06/16 09:14:15;;;;;;;4.72;1.58;;;;;;;22.71;39.59;102256.72;5109404;28;20020;-65
2022/06/16 09:16:53;;;;;;;1.40;1.00;;;;;;;22.71;40.38;102262.16;5109349;28;20031;-67
2022/06/16 09:19:41;;;;;;;1.38;0.68;;;;;;;22.69;40.59;102264.19;5127768;28;20024;-67
2022/06/16 09:22:34;;;;;;;1.67;1.13;;;;;;;22.71;40.14;102262.16;5108577;28;20027;-65
2022/06/16 09:25:38;;;;;;;3.90;1.20;;;;;;;22.69;40.25;102268.75;5108939;28;20401;-67
2022/06/16 09:28:14;;;;;;;2.08;0.95;;;;;;;22.74;40.18;102269.13;5109447;28;20028;-67
2022/06/16 09:30:41;;;;;;;2.40;1.20;;;;;;;22.74;40.49;102263.69;5109406;28;20024;-66
2022/06/16 09:33:10;;;;;;;4.50;1.45;;;;;;;22.75;40.70;102269.97;5108342;28;20024;-65
2022/06/16 09:35:47;;;;;;;1.17;0.82;;;;;;;22.71;40.52;102262.16;5109257;28;20026;-67
2022/06/16 09:38:20;;;;;;;2.45;1.00;;;;;;;22.75;40.67;102262.69;5109005;28;20092;-67
2022/06/16 09:40:50;;;;;;;2.75;1.65;;;;;;;22.77;40.53;102271.53;5109239;28;20083;-66
2022/06/16 09:43:17;;;;;;;3.38;1.17;;;;;;;22.79;40.31;102274.06;5108458;28;20420;-66
2022/06/16 09:45:53;;;;;;;2.05;1.35;;;;;;;22.79;40.21;102271.34;5108768;28;20438;-64
2022/06/16 09:48:23;;;;;;;1.70;1.15;;;;;;;22.79;40.20;102269.47;5127558;28;20469;-66
2022/06/16 09:50:53;;;;;;;4.28;1.30;;;;;;;22.68;39.82;102254.38;5126617;28;20028;-66
2022/06/16 09:53:41;;;;;;;2.25;1.33;;;;;;;22.80;40.11;102273.03;5106703;28;20049;-66
2022/06/16 09:56:18;;;;;;;2.55;1.52;;;;;;;22.71;40.38;102274.84;5088289;28;20020;-66
2022/06/16 09:58:59;;;;;;;2.08;1.10;;;;;;;22.82;40.36;102276.47;5088598;28;20031;-66
2022/06/16 10:01:28;;;;;;;1.73;1.20;;;;;;;22.82;40.09;102277.31;5088402;28;20024;-67
2022/06/16 10:04:04;;;;;;;1.98;1.20;;;;;;;22.83;40.46;102289.84;5106551;28;20087;-67
2022/06/16 10:06:53;;;;;;;4.57;1.25;;;;;;;22.81;40.39;102291.88;5106051;28;20473;-66
2022/06/16 10:09:28;;;;;;;;;;;;;;;22.82;40.32;102304.41;5088356;28;20039;-66
2022/06/16 10:12:11;;;;;;;1.80;1.17;;;;;;;22.85;40.44;102308.66;5106866;28;19908;-66
2022/06/16 10:14:55;;;;;;;2.50;1.23;;;;;;;22.84;40.63;102310.53;5125623;28;20081;-63
2022/06/16 10:17:22;;;;;;;1.90;1.50;;;;;;;22.86;40.55;102313.09;5142741;27;20027;-66
2022/06/16 10:19:50;;;;;;;3.97;1.13;;;;;;;22.86;40.76;102311.22;5129122;27;20023;-65
2022/06/16 10:22:18;;;;;;;1.95;1.20;;;;;;;22.87;40.82;102307.50;5115406;28;20027;-66
2022/06/16 10:24:55;;;;;;;3.08;1.20;;;;;;;22.88;40.63;102309.19;5107913;28;20022;-66
2022/06/16 10:27:22;;;;;;;1.75;0.95;;;;;;;22.89;40.90;102308.16;5126189;28;20031;-65
2022/06/16 10:29:56;;;;;;;1.88;1.17;;;;;;;22.91;40.82;102308.91;5126327;28;20030;-65
2022/06/16 10:32:41;;;;;;;5.88;1.48;;;;;;;22.93;40.70;102311.44;5126255;28;20026;-65
2022/06/16 10:35:18;;;;;;;3.83;1.42;;;;;;;22.95;40.85;102312.16;5125895;28;20095;-65
2022/06/16 10:37:46;;;;;;;2.88;1.15;;;;;;;22.93;40.72;102309.59;5109130;28;20031;-66
2022/06/16 10:40:36;;;;;;;2.88;1.50;;;;;;;22.96;40.85;102311.13;5107570;28;20034;-65
2022/06/16 10:43:08;;;;;;;2.33;1.27;;;;;;;22.98;41.01;102319.09;5125669;28;20047;-67
2022/06/16 10:45:35;;;;;;;2.55;1.27;;;;;;;22.97;41.05;102315.53;5107595;28;20076;-66
2022/06/16 10:48:18;;;;;;;3.00;1.30;;;;;;;23.01;40.94;102307.94;5107437;28;20440;-62
2022/06/16 10:50:47;;;;;;;1.88;1.08;;;;;;;23.01;40.74;102310.66;5105992;28;20024;-62
2022/06/16 10:53:23;;;;;;;3.60;1.33;;;;;;;23.02;40.62;102302.34;5104858;28;20103;-60
2022/06/16 10:55:50;;;;;;;3.83;1.60;;;;;;;22.95;40.53;102287.75;5105083;28;20438;-58
2022/06/16 10:58:18;;;;;;;5.43;1.50;;;;;;;23.05;40.60;102306.59;5104584;28;20369;-58
2022/06/16 11:00:44;;;;;;;;;;;;;;;23.05;40.60;102312.88;5109626;27;20107;-59
2022/06/16 11:03:09;;;;;;;2.10;1.20;;;;;;;23.06;40.54;102305.56;5127477;27;19965;-57
2022/06/16 11:05:45;;;;;;;3.90;1.80;;;;;;;23.07;40.76;102307.31;5145768;27;20029;-59
2022/06/16 11:08:12;;;;;;;1.80;1.40;;;;;;;23.08;41.21;102315.25;5127337;27;20027;-58
2022/06/16 11:10:40;;;;;;;2.63;1.23;;;;;;;23.02;40.92;102299.63;5119181;28;20114;-59
2022/06/16 11:13:07;;;;;;;4.03;1.90;;;;;;;23.08;41.06;102306.28;5107160;28;20084;-58
2022/06/16 11:15:35;;;;;;;2.55;1.25;;;;;;;23.12;41.04;102311.22;5107297;28;20034;-59
2022/06/16 11:18:09;;;;;;;1.45;1.13;;;;;;;23.14;41.43;102309.19;5107867;28;20029;-60
2022/06/16 11:20:39;;;;;;;2.63;1.30;;;;;;;23.15;41.46;102315.44;5106745;28;20028;-58
2022/06/16 11:23:16;;;;;;;1.58;1.15;;;;;;;23.18;41.10;102305.13;5098946;28;20039;-60
2022/06/16 11:25:42;;;;;;;1.88;1.15;;;;;;;23.19;41.19;102306.84;5125434;28;20015;-61
2022/06/16 11:28:07;;;;;;;3.58;1.67;;;;;;;23.20;41.28;102300.41;5107245;28;20507;-66
2022/06/16 11:30:40;;;;;;;1.98;1.33;;;;;;;23.23;41.48;102301.91;5125304;28;20024;-62
2022/06/16 11:36:41;;;;;;;3.13;1.13;;;;;;;23.25;41.53;102299.06;5125394;28;20031;-59
2022/06/16 11:39:16;;;;;;;2.55;1.25;;;;;;;23.25;41.63;102308.06;5125217;28;20549;-62
2022/06/16 11:41:46;;;;;;;5.75;1.33;;;;;;;23.25;41.86;102305.34;5107054;28;20124;-62
2022/06/16 11:44:31;;;;;;;3.53;1.60;;;;;;;23.24;41.96;102305.50;5107335;28;20052;-63
2022/06/16 11:47:33;;;;;;;5.15;1.05;;;;;;;23.25;42.08;102301.78;5106248;28;20097;-63
2022/06/16 11:50:24;;;;;;;2.17;1.27;;;;;;;23.24;41.87;102302.78;5093739;28;20087;-63
2022/06/16 11:52:55;;;;;;;1.88;1.40;;;;;;;23.25;42.03;102309.91;5091801;28;20024;-62
2022/06/16 11:55:24;;;;;;;2.65;1.65;;;;;;;23.22;41.97;102293.94;5124531;28;20115;-62
2022/06/16 11:57:55;;;;;;;3.33;1.98;;;;;;;23.25;41.84;102302.63;5128500;28;20057;-62
2022/06/16 12:00:37;;;;;;;2.63;1.60;;;;;;;23.25;41.93;102301.78;5129314;28;20047;-62
2022/06/16 12:03:33;;;;;;;2.15;1.63;;;;;;;23.25;41.98;102315.34;5111381;28;20019;-62